Time;durP1;ratioP1;P1;durP2;ratioP2;P2;SDS_P1;SDS_P2;PMS_P1;PMS_P2;Temp;Humidity;BMP_temperature;BMP_pressure;BME280_temperature;BME280_humidity;BME280_pressure;Samples;Min_cycle;Max_cycle;Signal;HPM_P1;HPM_P2
2022/04/24 00:00:09;;;;;;;9.23;5.88;;;10.70;81.50;;;;;;5090537;28;20030;-80
2022/04/24 00:02:35;;;;;;;5.25;4.75;;;10.60;81.90;;;;;;5091082;28;20376;-78
2022/04/24 00:05:00;;;;;;;5.95;5.35;;;10.60;81.90;;;;;;5089431;28;20028;-79
2022/04/24 00:07:26;;;;;;;7.72;6.38;;;10.50;82.10;;;;;;5091058;28;20084;-76
2022/04/24 00:09:51;;;;;;;6.93;5.82;;;10.50;82.30;;;;;;5090664;28;20040;-79
2022/04/24 00:12:18;;;;;;;7.90;6.00;;;10.50;82.90;;;;;;5089675;28;20024;-80
2022/04/24 00:14:44;;;;;;;7.72;6.25;;;10.50;82.60;;;;;;5091461;28;20019;-79
2022/04/24 00:17:10;;;;;;;7.38;5.55;;;10.40;82.80;;;;;;5089410;28;20395;-77
2022/04/24 00:19:36;;;;;;;8.57;6.45;;;10.30;83.20;;;;;;5090952;28;20024;-78
2022/04/24 00:22:01;;;;;;;6.53;5.70;;;10.30;83.50;;;;;;5091336;28;20673;-79
2022/04/24 00:24:27;;;;;;;7.00;6.10;;;10.40;83.30;;;;;;5091393;28;20101;-78
2022/04/24 00:26:54;;;;;;;6.88;5.97;;;10.30;83.40;;;;;;5090544;28;20059;-77
2022/04/24 00:29:20;;;;;;;6.63;5.78;;;10.30;83.40;;;;;;5091145;28;20020;-78
2022/04/24 00:31:45;;;;;;;9.35;6.88;;;10.30;83.80;;;;;;5090683;28;20043;-79
2022/04/24 00:34:11;;;;;;;9.30;6.68;;;10.20;84.00;;;;;;5091294;28;20093;-79
2022/04/24 00:36:37;;;;;;;8.20;6.72;;;10.20;84.00;;;;;;5088923;28;20365;-78
2022/04/24 00:39:03;;;;;;;9.82;7.28;;;10.20;84.20;;;;;;5091259;28;20456;-78
2022/04/24 00:41:28;;;;;;;7.88;6.50;;;10.10;84.70;;;;;;5089240;28;20020;-79
2022/04/24 00:43:54;;;;;;;9.88;7.45;;;10.00;84.50;;;;;;5090569;28;20452;-78
2022/04/24 00:47:00;;;;;;;8.10;6.60;;;10.00;85.00;;;;;;5090170;28;20038;-77
2022/04/24 00:49:26;;;;;;;10.23;7.07;;;9.80;85.50;;;;;;5090860;28;20020;-80
2022/04/24 00:51:52;;;;;;;7.80;6.80;;;9.60;86.40;;;;;;5090529;28;20035;-77
2022/04/24 00:54:18;;;;;;;9.77;7.40;;;9.60;86.80;;;;;;5089053;28;20024;-79
2022/04/24 00:56:44;;;;;;;10.15;7.40;;;9.60;86.20;;;;;;5089856;28;20020;-79
2022/04/24 00:59:12;;;;;;;9.90;6.93;;;9.60;86.00;;;;;;5090900;28;20035;-80
2022/04/24 01:01:38;;;;;;;9.93;7.78;;;9.60;86.40;;;;;;5090177;28;20034;-78
2022/04/24 01:04:06;;;;;;;10.88;7.55;;;9.60;86.80;;;;;;5090723;28;20112;-79
2022/04/24 01:06:40;;;;;;;10.25;7.20;;;9.50;87.30;;;;;;5089771;28;20042;-79
2022/04/24 01:09:15;;;;;;;9.07;7.18;;;9.40;87.70;;;;;;5090767;28;20028;-78
2022/04/24 01:11:42;;;;;;;9.60;7.53;;;9.40;87.70;;;;;;5090079;28;20032;-77
2022/04/24 01:14:08;;;;;;;9.23;7.50;;;9.40;87.60;;;;;;5089414;28;20024;-77
2022/04/24 01:16:35;;;;;;;11.63;7.85;;;9.40;87.90;;;;;;5089993;28;20020;-79
2022/04/24 01:19:01;;;;;;;8.70;7.82;;;9.40;88.10;;;;;;5089232;28;20035;-78
2022/04/24 01:21:26;;;;;;;13.32;8.68;;;9.40;88.30;;;;;;5088728;28;20028;-77
2022/04/24 01:23:52;;;;;;;10.35;8.40;;;9.40;88.20;;;;;;5090278;28;20028;-78
2022/04/24 01:26:17;;;;;;;9.02;7.57;;;9.30;88.50;;;;;;5089830;28;20026;-78
2022/04/24 01:28:42;;;;;;;10.15;7.97;;;9.20;88.90;;;;;;5089039;28;20024;-79
2022/04/24 01:31:08;;;;;;;9.45;7.95;;;9.00;89.80;;;;;;5090320;28;20342;-78
2022/04/24 01:33:34;;;;;;;9.05;7.07;;;9.00;90.00;;;;;;5090662;28;20024;-77
2022/04/24 01:35:59;;;;;;;9.18;7.20;;;8.90;90.10;;;;;;5089411;28;20029;-79
2022/04/24 01:38:25;;;;;;;10.63;8.10;;;8.90;90.30;;;;;;5090303;28;20440;-76
2022/04/24 01:40:50;;;;;;;8.38;6.93;;;8.90;90.30;;;;;;5088670;28;20376;-78
2022/04/24 01:43:16;;;;;;;10.57;7.65;;;8.90;90.30;;;;;;5090393;28;20024;-78
2022/04/24 01:45:43;;;;;;;10.93;7.78;;;8.90;90.40;;;;;;5089451;28;20103;-79
2022/04/24 01:48:08;;;;;;;10.35;7.72;;;8.80;90.60;;;;;;5090461;28;20505;-78
2022/04/24 01:50:34;;;;;;;8.25;7.20;;;8.80;90.70;;;;;;5090085;28;20032;-76
2022/04/24 01:52:59;;;;;;;9.85;7.95;;;8.80;90.80;;;;;;5089985;28;20038;-77
2022/04/24 01:55:25;;;;;;;12.30;7.90;;;8.80;90.80;;;;;;5089584;28;20032;-79
2022/04/24 01:57:50;;;;;;;9.73;7.60;;;8.80;90.70;;;;;;5090057;28;20364;-79
2022/04/24 02:00:16;;;;;;;12.98;8.07;;;8.90;90.70;;;;;;5090126;28;20024;-78
2022/04/24 02:02:41;;;;;;;9.20;6.88;;;8.90;90.70;;;;;;5089843;28;20031;-79
2022/04/24 02:05:07;;;;;;;10.32;7.43;;;8.90;90.80;;;;;;5090054;28;20479;-77
2022/04/24 02:07:32;;;;;;;8.77;7.05;;;8.70;91.00;;;;;;5088161;28;20027;-79
2022/04/24 02:09:58;;;;;;;10.57;8.20;;;8.70;91.00;;;;;;5089635;28;20039;-79
2022/04/24 02:12:23;;;;;;;8.50;7.55;;;8.70;91.20;;;;;;5089838;28;20021;-78
2022/04/24 02:14:49;;;;;;;10.68;8.15;;;8.70;91.20;;;;;;5089924;28;20020;-77
2022/04/24 02:17:14;;;;;;;8.27;6.60;;;8.70;91.20;;;;;;5089532;28;20043;-77
2022/04/24 02:19:39;;;;;;;11.25;7.63;;;8.60;91.50;;;;;;5089935;28;20088;-77
2022/04/24 02:22:05;;;;;;;12.15;7.45;;;8.60;91.50;;;;;;5088642;28;20048;-78
2022/04/24 02:24:31;;;;;;;9.93;7.03;;;8.50;91.60;;;;;;5090127;28;20040;-77
2022/04/24 02:26:57;;;;;;;8.25;7.38;;;8.60;91.70;;;;;;5089307;28;20024;-80
2022/04/24 02:29:22;;;;;;;8.27;6.97;;;8.60;91.80;;;;;;5089953;28;20024;-79
2022/04/24 02:31:48;;;;;;;9.27;7.20;;;8.50;91.80;;;;;;5088094;28;20028;-77
2022/04/24 02:34:13;;;;;;;10.30;6.95;;;8.50;91.80;;;;;;5090221;28;20525;-79
2022/04/24 02:36:39;;;;;;;11.02;7.85;;;8.50;92.00;;;;;;5092854;28;20035;-79
2022/04/24 02:39:04;;;;;;;11.50;7.53;;;8.40;92.00;;;;;;5093622;28;20769;-77
2022/04/24 02:41:29;;;;;;;9.52;7.75;;;8.30;92.20;;;;;;5093366;28;20046;-78
2022/04/24 02:43:55;;;;;;;9.45;7.20;;;8.40;92.10;;;;;;5093262;28;20032;-77
2022/04/24 02:46:21;;;;;;;9.80;7.65;;;8.40;92.20;;;;;;5091339;28;20225;-78
2022/04/24 02:48:46;;;;;;;11.57;7.97;;;8.30;92.40;;;;;;5093118;28;20040;-77
2022/04/24 02:51:12;;;;;;;9.32;7.38;;;8.40;92.20;;;;;;5092856;28;20047;-78
2022/04/24 02:53:37;;;;;;;10.27;7.07;;;8.40;92.40;;;;;;5093109;28;20038;-77
2022/04/24 02:56:03;;;;;;;12.50;7.22;;;8.40;92.30;;;;;;5092529;28;20464;-77
2022/04/24 02:58:28;;;;;;;8.75;7.57;;;8.40;92.30;;;;;;5093062;28;20016;-79
2022/04/24 03:00:55;;;;;;;10.80;6.85;;;8.40;92.20;;;;;;5092564;28;20123;-77
2022/04/24 03:03:21;;;;;;;9.50;7.15;;;8.50;92.20;;;;;;5092953;28;20032;-78
2022/04/24 03:05:49;;;;;;;9.90;7.70;;;8.50;92.10;;;;;;5092465;28;20028;-79
2022/04/24 03:08:16;;;;;;;9.43;7.70;;;8.50;92.10;;;;;;5092882;28;20046;-78
2022/04/24 03:10:42;;;;;;;8.57;7.00;;;8.40;92.30;;;;;;5092036;28;20036;-78
2022/04/24 03:13:08;;;;;;;8.93;7.45;;;8.20;92.70;;;;;;5091434;28;20043;-77
2022/04/24 03:15:34;;;;;;;11.32;7.95;;;8.10;92.80;;;;;;5092052;28;20107;-78
2022/04/24 03:17:59;;;;;;;11.25;8.02;;;8.10;93.00;;;;;;5092731;28;20107;-77
2022/04/24 03:20:25;;;;;;;11.73;8.50;;;8.10;92.90;;;;;;5092682;28;20461;-77
2022/04/24 03:22:51;;;;;;;10.50;8.40;;;8.10;93.10;;;;;;5092233;28;20024;-78
2022/04/24 03:25:17;;;;;;;10.13;7.57;;;8.00;93.10;;;;;;5092024;28;20028;-78
2022/04/24 03:27:42;;;;;;;7.80;7.00;;;8.10;93.20;;;;;;5092443;28;20047;-78
2022/04/24 03:30:09;;;;;;;9.43;7.63;;;8.10;93.10;;;;;;5092355;28;20028;-78
2022/04/24 03:32:36;;;;;;;10.43;7.70;;;8.10;93.20;;;;;;5090519;28;20027;-78
2022/04/24 03:35:03;;;;;;;14.93;8.07;;;8.10;93.20;;;;;;5092179;28;20028;-78
2022/04/24 03:37:29;;;;;;;9.15;7.32;;;8.00;93.40;;;;;;5090164;28;20073;-79
2022/04/24 03:39:55;;;;;;;9.90;7.43;;;8.00;93.40;;;;;;5090545;28;20410;-77
2022/04/24 03:42:20;;;;;;;10.68;7.72;;;8.00;93.50;;;;;;5091650;28;20035;-80
2022/04/24 03:44:46;;;;;;;11.43;7.65;;;7.90;93.70;;;;;;5091668;28;20016;-78
2022/04/24 03:47:13;;;;;;;9.93;7.93;;;8.00;93.60;;;;;;5090923;28;20528;-77
2022/04/24 03:49:39;;;;;;;10.85;8.02;;;8.00;93.60;;;;;;5091621;28;20023;-78
2022/04/24 03:52:05;;;;;;;10.75;8.10;;;7.90;93.70;;;;;;5090387;28;20415;-78
2022/04/24 03:54:30;;;;;;;9.02;7.22;;;7.80;94.00;;;;;;5091743;28;20024;-77
2022/04/24 03:56:56;;;;;;;10.15;7.82;;;7.70;94.10;;;;;;5091049;28;20055;-78
2022/04/24 03:59:21;;;;;;;10.00;8.30;;;7.70;94.20;;;;;;5092062;28;20024;-78
2022/04/24 04:01:47;;;;;;;10.60;7.80;;;7.70;94.50;;;;;;5091704;28;20035;-78
2022/04/24 04:04:13;;;;;;;9.45;7.88;;;7.60;94.60;;;;;;5091784;28;20032;-76
2022/04/24 04:06:38;;;;;;;9.90;7.70;;;7.50;94.70;;;;;;5090637;28;20411;-78
2022/04/24 04:09:04;;;;;;;10.05;7.53;;;7.70;94.50;;;;;;5091596;28;20028;-79
2022/04/24 04:11:30;;;;;;;11.75;7.95;;;7.80;94.40;;;;;;5091028;28;20036;-79
2022/04/24 04:13:56;;;;;;;10.85;7.63;;;7.80;94.40;;;;;;5091389;28;20020;-77
2022/04/24 04:16:21;;;;;;;11.02;8.73;;;7.90;94.30;;;;;;5090574;28;20031;-76
2022/04/24 04:18:46;;;;;;;12.38;9.35;;;8.00;94.20;;;;;;5091238;28;20107;-77
2022/04/24 04:21:12;;;;;;;10.00;8.07;;;7.90;94.20;;;;;;5090983;28;20071;-77
2022/04/24 04:23:37;;;;;;;10.50;7.57;;;7.90;94.20;;;;;;5091264;28;20024;-77
2022/04/24 04:26:03;;;;;;;10.45;7.95;;;7.80;94.40;;;;;;5089243;28;20020;-77
2022/04/24 04:28:28;;;;;;;11.93;8.32;;;7.80;94.60;;;;;;5091417;28;20031;-78
2022/04/24 04:30:54;;;;;;;12.27;7.80;;;7.70;94.70;;;;;;5090738;28;20365;-78
2022/04/24 04:33:19;;;;;;;12.52;7.95;;;7.70;94.90;;;;;;5091083;28;20115;-78
2022/04/24 04:35:46;;;;;;;13.77;8.23;;;7.60;95.00;;;;;;5090415;28;20024;-78
2022/04/24 04:38:12;;;;;;;8.90;7.10;;;7.60;95.00;;;;;;5090970;28;20047;-79
2022/04/24 04:40:37;;;;;;;14.10;8.38;;;7.70;94.90;;;;;;5091080;28;20474;-78
2022/04/24 04:43:03;;;;;;;11.70;8.70;;;7.80;94.70;;;;;;5090859;28;20024;-78
2022/04/24 04:45:28;;;;;;;11.48;8.10;;;7.80;94.80;;;;;;5090485;28;20517;-78
2022/04/24 04:47:53;;;;;;;10.10;8.18;;;7.80;94.90;;;;;;5090802;28;20051;-78
2022/04/24 04:50:19;;;;;;;10.60;7.88;;;7.60;95.20;;;;;;5090900;28;20037;-77
2022/04/24 04:52:44;;;;;;;9.93;7.72;;;7.60;95.20;;;;;;5090463;28;20110;-77
2022/04/24 04:55:10;;;;;;;10.23;7.78;;;7.70;95.10;;;;;;5090585;28;20039;-78
2022/04/24 04:57:36;;;;;;;9.93;7.70;;;7.80;95.00;;;;;;5088670;28;20039;-77
2022/04/24 05:00:05;;;;;;;12.52;7.97;;;7.80;95.00;;;;;;5090677;28;20034;-76
2022/04/24 05:02:31;;;;;;;11.88;8.75;;;7.80;95.10;;;;;;5090485;28;20024;-78
2022/04/24 05:04:59;;;;;;;13.18;7.63;;;7.90;95.00;;;;;;5090587;28;20108;-77
2022/04/24 05:07:25;;;;;;;12.93;7.95;;;7.80;95.00;;;;;;5090310;28;20076;-79
2022/04/24 05:09:50;;;;;;;9.85;7.35;;;8.00;94.90;;;;;;5090337;28;20403;-76
2022/04/24 05:12:16;;;;;;;11.95;8.25;;;8.10;94.70;;;;;;5089183;28;20030;-77
2022/04/24 05:14:41;;;;;;;11.85;8.40;;;8.20;94.80;;;;;;5090681;28;20658;-78
2022/04/24 05:17:07;;;;;;;11.10;8.07;;;8.10;94.60;;;;;;5090052;28;20035;-78
2022/04/24 05:19:32;;;;;;;13.50;9.07;;;8.20;94.60;;;;;;5090246;28;20034;-77
2022/04/24 05:21:59;;;;;;;10.00;8.02;;;8.10;94.80;;;;;;5090413;28;20024;-78
2022/04/24 05:24:24;;;;;;;10.40;7.43;;;8.20;94.90;;;;;;5090603;28;20107;-76
2022/04/24 05:26:50;;;;;;;11.55;8.40;;;8.10;94.80;;;;;;5089730;28;20095;-77
2022/04/24 05:29:15;;;;;;;9.57;7.40;;;8.30;94.70;;;;;;5090386;28;20090;-78
2022/04/24 05:31:41;;;;;;;10.88;8.32;;;8.40;94.60;;;;;;5089795;28;20036;-77
2022/04/24 05:34:06;;;;;;;11.35;8.13;;;8.40;94.40;;;;;;5089236;28;20047;-78
2022/04/24 05:36:32;;;;;;;12.30;8.75;;;8.40;94.30;;;;;;5089608;28;20089;-78
2022/04/24 05:38:57;;;;;;;10.73;7.80;;;8.40;94.60;;;;;;5090287;28;20032;-79
2022/04/24 05:41:23;;;;;;;11.32;8.70;;;8.40;94.40;;;;;;5090297;28;20107;-78
2022/04/24 05:43:48;;;;;;;12.30;8.10;;;8.20;94.80;;;;;;5090303;28;20024;-78
2022/04/24 05:46:14;;;;;;;10.85;8.18;;;8.10;95.30;;;;;;5089519;28;20020;-78
2022/04/24 05:48:40;;;;;;;13.27;7.95;;;8.20;95.00;;;;;;5090139;28;20409;-78
2022/04/24 05:51:05;;;;;;;11.07;8.20;;;8.30;95.00;;;;;;5089931;28;20518;-77
2022/04/24 05:53:30;;;;;;;14.18;8.48;;;8.40;94.80;;;;;;5090319;28;20032;-77
2022/04/24 05:55:57;;;;;;;11.07;8.10;;;8.50;94.70;;;;;;5089594;28;20036;-78
2022/04/24 05:58:23;;;;;;;11.88;8.93;;;8.60;94.50;;;;;;5090233;28;20016;-78
2022/04/24 06:00:48;;;;;;;14.45;8.35;;;8.60;94.70;;;;;;5089821;28;20032;-79
2022/04/24 06:03:14;;;;;;;12.60;8.35;;;8.60;94.40;;;;;;5090074;28;20089;-78
2022/04/24 06:05:39;;;;;;;9.63;8.02;;;8.80;94.50;;;;;;5089371;28;20028;-79
2022/04/24 06:08:05;;;;;;;10.82;7.95;;;9.00;93.90;;;;;;5090066;28;20030;-79
2022/04/24 06:10:30;;;;;;;11.50;8.25;;;9.20;93.70;;;;;;5093513;28;20040;-78
2022/04/24 06:12:56;;;;;;;11.85;8.15;;;9.20;93.70;;;;;;5093576;28;20060;-79
2022/04/24 06:15:26;;;;;;;11.05;8.32;;;9.20;93.60;;;;;;5093216;28;20024;-78
2022/04/24 06:17:54;;;;;;;10.75;8.32;;;9.40;93.40;;;;;;5093660;28;20024;-78
2022/04/24 06:20:22;;;;;;;11.88;8.60;;;9.50;93.30;;;;;;5093649;28;20036;-78
2022/04/24 06:22:52;;;;;;;9.40;7.78;;;9.60;93.30;;;;;;5093258;28;20023;-77
2022/04/24 06:25:31;;;;;;;13.18;7.85;;;9.70;93.10;;;;;;5091756;28;20027;-79
2022/04/24 06:27:56;;;;;;;10.13;7.72;;;9.80;92.80;;;;;;5093796;28;20035;-77
2022/04/24 06:30:24;;;;;;;10.68;8.45;;;10.00;92.60;;;;;;5093660;28;20028;-79
2022/04/24 06:32:50;;;;;;;11.60;8.70;;;9.90;92.60;;;;;;5093200;28;20050;-77
2022/04/24 06:35:17;;;;;;;13.02;8.80;;;10.10;92.60;;;;;;5091853;28;20469;-77
2022/04/24 06:37:45;;;;;;;16.55;8.25;;;10.20;92.10;;;;;;5093440;28;20031;-77
2022/04/24 06:40:13;;;;;;;11.02;8.93;;;10.30;92.10;;;;;;5091976;28;20031;-77
2022/04/24 06:42:52;;;;;;;12.25;7.93;;;10.20;92.00;;;;;;5092977;28;20024;-79
2022/04/24 06:45:21;;;;;;;11.00;8.20;;;10.30;92.30;;;;;;5092237;28;20051;-77
2022/04/24 06:47:46;;;;;;;13.63;8.55;;;10.40;91.90;;;;;;5093250;28;20031;-77
2022/04/24 06:50:12;;;;;;;12.45;8.68;;;10.50;91.70;;;;;;5093293;28;20376;-78
2022/04/24 06:52:38;;;;;;;13.40;9.55;;;10.50;92.00;;;;;;5092738;28;20133;-77
2022/04/24 06:55:05;;;;;;;9.20;7.85;;;10.60;91.70;;;;;;5093307;28;20024;-79
2022/04/24 06:57:32;;;;;;;11.02;8.90;;;10.80;91.80;;;;;;5092526;28;20027;-77
2022/04/24 06:59:58;;;;;;;12.60;8.68;;;10.90;91.50;;;;;;5093008;28;20148;-78
2022/04/24 07:02:23;;;;;;;10.82;8.63;;;11.10;91.20;;;;;;5092835;28;20544;-78
2022/04/24 07:04:49;;;;;;;15.73;8.50;;;11.20;91.10;;;;;;5092939;28;20034;-77
2022/04/24 07:07:14;;;;;;;10.90;8.65;;;11.20;91.00;;;;;;5092287;28;20130;-79
2022/04/24 07:09:40;;;;;;;10.43;8.18;;;11.20;90.80;;;;;;5092769;28;20491;-77
2022/04/24 07:12:06;;;;;;;16.15;9.77;;;11.30;91.00;;;;;;5092522;28;20036;-77
2022/04/24 07:14:32;;;;;;;12.10;8.85;;;11.50;91.00;;;;;;5092861;28;20141;-77
2022/04/24 07:16:57;;;;;;;12.77;8.10;;;11.80;90.50;;;;;;5092047;28;20020;-79
2022/04/24 07:19:23;;;;;;;10.73;8.00;;;11.80;90.40;;;;;;5092369;28;20028;-79
2022/04/24 07:21:49;;;;;;;13.82;8.50;;;12.00;90.50;;;;;;5092480;28;20031;-78
2022/04/24 07:24:14;;;;;;;10.20;8.07;;;12.00;90.60;;;;;;5092662;28;20016;-77
2022/04/24 07:26:40;;;;;;;11.82;8.18;;;12.10;91.00;;;;;;5091669;28;20044;-79
2022/04/24 07:29:05;;;;;;;11.88;8.45;;;12.40;90.20;;;;;;5092863;28;20031;-77
2022/04/24 07:31:31;;;;;;;12.55;8.52;;;12.50;89.10;;;;;;5091990;28;20036;-79
2022/04/24 07:33:58;;;;;;;11.27;8.93;;;12.60;90.00;;;;;;5092596;28;20119;-78
2022/04/24 07:36:24;;;;;;;11.05;8.88;;;12.70;88.60;;;;;;5090323;28;20020;-78
2022/04/24 07:38:50;;;;;;;11.00;8.57;;;12.90;89.60;;;;;;5092297;28;20093;-79
2022/04/24 07:41:16;;;;;;;11.18;9.02;;;13.10;87.40;;;;;;5092121;28;20111;-77
2022/04/24 07:43:48;;;;;;;11.00;9.07;;;13.00;87.50;;;;;;5092107;28;20103;-81
2022/04/24 07:46:14;;;;;;;10.50;8.23;;;13.10;88.20;;;;;;5090221;28;20024;-78
2022/04/24 07:48:39;;;;;;;11.73;7.75;;;13.10;86.90;;;;;;5092242;28;20028;-78
2022/04/24 07:51:05;;;;;;;13.23;9.25;;;13.40;87.10;;;;;;5091839;28;20042;-78
2022/04/24 07:53:30;;;;;;;10.68;8.48;;;13.40;86.70;;;;;;5092112;28;20032;-78
2022/04/24 07:55:55;;;;;;;13.05;8.75;;;13.50;86.70;;;;;;5091181;28;20437;-79
2022/04/24 07:58:21;;;;;;;10.40;8.60;;;13.70;88.40;;;;;;5091965;28;20035;-78
2022/04/24 08:00:47;;;;;;;10.00;8.10;;;13.90;85.80;;;;;;5091484;28;20134;-77
2022/04/24 08:03:15;;;;;;;10.38;7.85;;;14.00;85.10;;;;;;5091787;28;20020;-80
2022/04/24 08:05:42;;;;;;;10.70;7.97;;;14.20;84.10;;;;;;5091157;28;20032;-78
2022/04/24 08:08:10;;;;;;;9.93;7.43;;;14.30;83.30;;;;;;5091728;28;20361;-79
2022/04/24 08:10:39;;;;;;;9.63;7.65;;;14.60;84.00;;;;;;5091718;28;20040;-79
2022/04/24 08:13:05;;;;;;;9.60;7.28;;;14.50;82.60;;;;;;5090287;28;20024;-79
2022/04/24 08:15:32;;;;;;;11.55;8.32;;;14.60;82.20;;;;;;5090842;28;20028;-80
2022/04/24 08:17:57;;;;;;;11.93;7.20;;;14.50;81.50;;;;;;5090190;28;20067;-78
2022/04/24 08:20:23;;;;;;;11.95;6.95;;;14.40;81.70;;;;;;5091401;28;20069;-79
2022/04/24 08:22:50;;;;;;;8.57;7.30;;;14.60;81.30;;;;;;5091205;28;20028;-79
2022/04/24 08:25:22;;;;;;;11.45;7.35;;;14.50;81.10;;;;;;5090850;28;20024;-78
2022/04/24 08:27:49;;;;;;;10.32;7.43;;;14.60;82.10;;;;;;5091412;28;20070;-78
2022/04/24 08:30:16;;;;;;;10.32;7.22;;;14.70;81.40;;;;;;5090117;28;20392;-78
2022/04/24 08:32:42;;;;;;;10.52;7.43;;;14.80;81.00;;;;;;5090127;28;20019;-80
2022/04/24 08:35:10;;;;;;;10.23;7.68;;;14.80;81.80;;;;;;5091226;28;20016;-77
2022/04/24 08:37:36;;;;;;;11.18;7.72;;;14.60;81.70;;;;;;5090891;28;20051;-78
2022/04/24 08:40:04;;;;;;;6.97;5.75;;;14.50;81.40;;;;;;5091580;28;20507;-78
2022/04/24 08:42:30;;;;;;;6.97;5.65;;;14.60;79.90;;;;;;5089468;28;20438;-79
2022/04/24 08:44:56;;;;;;;8.35;6.20;;;14.70;77.10;;;;;;5089791;28;20158;-79
2022/04/24 08:47:23;;;;;;;8.07;5.72;;;14.90;77.20;;;;;;5088932;28;20119;-78
2022/04/24 08:49:54;;;;;;;7.05;5.57;;;14.80;77.90;;;;;;5089348;28;20044;-79
2022/04/24 08:52:20;;;;;;;7.13;6.30;;;15.00;78.30;;;;;;5090706;28;20398;-79
2022/04/24 08:54:46;;;;;;;10.02;5.72;;;15.20;77.80;;;;;;5090728;28;20460;-78
2022/04/24 08:57:12;;;;;;;6.43;5.13;;;15.20;78.50;;;;;;5090235;28;20032;-81
2022/04/24 08:59:39;;;;;;;6.93;5.07;;;15.30;75.50;;;;;;5090814;28;20035;-77
2022/04/24 09:02:05;;;;;;;6.35;5.28;;;15.40;75.10;;;;;;5090507;28;20032;-79
2022/04/24 09:04:33;;;;;;;7.13;4.82;;;15.40;74.50;;;;;;5090794;28;20024;-78
2022/04/24 09:07:00;;;;;;;5.45;4.43;;;15.50;72.20;;;;;;5089726;28;20395;-79
2022/04/24 09:09:26;;;;;;;6.40;4.60;;;15.40;72.20;;;;;;5090945;28;20032;-80
2022/04/24 09:11:52;;;;;;;5.68;4.47;;;15.40;72.90;;;;;;5090323;28;20040;-79
2022/04/24 09:14:18;;;;;;;5.43;4.32;;;15.60;71.50;;;;;;5090743;28;20107;-80
2022/04/24 09:16:50;;;;;;;6.70;3.97;;;15.50;72.90;;;;;;5089915;28;20027;-78
2022/04/24 09:19:21;;;;;;;5.78;4.85;;;15.60;72.90;;;;;;5090443;28;20418;-78
2022/04/24 09:21:50;;;;;;;6.18;4.60;;;15.60;72.50;;;;;;5090102;28;20539;-80
2022/04/24 09:24:16;;;;;;;7.40;4.50;;;15.60;72.60;;;;;;5090472;28;20027;-80
2022/04/24 09:26:57;;;;;;;6.45;4.57;;;15.60;71.30;;;;;;5089572;28;20024;-80
2022/04/24 09:29:23;;;;;;;8.80;4.90;;;15.60;71.90;;;;;;5090426;28;20034;-80
2022/04/24 09:31:51;;;;;;;5.80;4.78;;;15.70;72.60;;;;;;5089967;28;20036;-80
2022/04/24 09:34:18;;;;;;;6.55;4.55;;;15.60;71.60;;;;;;5090321;28;20024;-80
2022/04/24 09:36:45;;;;;;;6.40;4.50;;;15.60;71.40;;;;;;5089578;28;20021;-80
2022/04/24 09:39:11;;;;;;;7.20;4.30;;;15.60;72.10;;;;;;5090324;28;20124;-79
2022/04/24 09:41:36;;;;;;;5.80;4.90;;;15.60;73.10;;;;;;5090260;28;20519;-79
2022/04/24 09:44:13;;;;;;;5.82;5.20;;;15.70;71.90;;;;;;5093376;28;20151;-79
2022/04/24 09:46:38;;;;;;;7.63;5.38;;;15.50;72.60;;;;;;5093839;28;20028;-79
2022/04/24 09:49:08;;;;;;;5.82;4.90;;;15.40;72.60;;;;;;5093495;28;20043;-80
2022/04/24 09:51:39;;;;;;;6.50;5.05;;;15.40;73.70;;;;;;5093986;28;20035;-80
2022/04/24 09:54:06;;;;;;;6.38;4.88;;;15.50;73.20;;;;;;5094583;28;20024;-79
2022/04/24 09:56:32;;;;;;;5.40;4.82;;;15.60;74.90;;;;;;5093528;28;20031;-79
2022/04/24 09:58:58;;;;;;;7.10;4.75;;;15.50;72.80;;;;;;5094025;28;20032;-78
2022/04/24 10:01:25;;;;;;;5.90;4.40;;;15.40;73.00;;;;;;5093684;28;20027;-80
2022/04/24 10:03:51;;;;;;;10.70;4.47;;;15.40;72.60;;;;;;5093946;28;20035;-78
2022/04/24 10:06:17;;;;;;;7.07;4.57;;;15.40;72.50;;;;;;5093311;28;20022;-80
2022/04/24 10:08:43;;;;;;;5.65;3.80;;;15.30;72.80;;;;;;5093916;28;20032;-79
2022/04/24 10:11:09;;;;;;;6.30;3.80;;;15.30;71.90;;;;;;5093605;28;20093;-78
2022/04/24 10:13:39;;;;;;;4.88;3.92;;;15.40;72.50;;;;;;5094011;28;20491;-79
2022/04/24 10:16:28;;;;;;;4.38;3.75;;;15.50;72.40;;;;;;5091891;28;20106;-79
2022/04/24 10:19:20;;;;;;;5.72;4.57;;;15.60;71.30;;;;;;5092701;28;20020;-79
2022/04/24 10:22:03;;;;;;;5.22;3.80;;;15.50;71.10;;;;;;5093410;28;20043;-79
2022/04/24 10:24:41;;;;;;;5.35;3.13;;;15.50;71.40;;;;;;5093992;28;20024;-80
2022/04/24 10:27:09;;;;;;;5.85;3.45;;;15.70;71.80;;;;;;5093261;28;20023;-77
2022/04/24 10:29:35;;;;;;;5.05;3.38;;;15.80;73.20;;;;;;5093770;28;20714;-81
2022/04/24 10:32:01;;;;;;;5.55;4.07;;;15.80;74.10;;;;;;5093229;28;20036;-81
2022/04/24 10:34:38;;;;;;;3.63;3.05;;;15.70;72.10;;;;;;5093616;28;20017;-79
2022/04/24 10:37:04;;;;;;;4.93;3.63;;;15.70;72.20;;;;;;5092849;28;20027;-80
2022/04/24 10:39:37;;;;;;;4.72;3.92;;;15.80;72.30;;;;;;5092153;28;20043;-80
2022/04/24 10:42:12;;;;;;;4.90;3.10;;;15.90;76.30;;;;;;5091901;28;20032;-81
2022/04/24 10:44:50;;;;;;;4.38;3.53;;;15.90;73.80;;;;;;5093095;28;20047;-79
2022/04/24 10:47:15;;;;;;;5.72;3.90;;;15.90;74.20;;;;;;5092692;28;20073;-79
2022/04/24 10:49:41;;;;;;;4.43;3.47;;;16.00;73.10;;;;;;5092936;28;20103;-79
2022/04/24 10:52:07;;;;;;;4.45;4.00;;;16.10;75.00;;;;;;5092537;28;20036;-79
2022/04/24 10:54:38;;;;;;;4.97;3.63;;;16.20;76.60;;;;;;5092406;28;20020;-80
2022/04/24 10:57:22;;;;;;;5.35;4.30;;;16.10;74.50;;;;;;5092816;28;20597;-78
2022/04/24 10:59:55;;;;;;;5.60;4.35;;;16.20;76.10;;;;;;5092980;28;20409;-78
2022/04/24 11:02:30;;;;;;;4.60;3.67;;;16.40;77.20;;;;;;5092878;28;20061;-79
2022/04/24 11:05:04;;;;;;;4.13;3.72;;;16.50;78.30;;;;;;5092881;28;20028;-79
2022/04/24 11:07:31;;;;;;;7.90;4.07;;;16.70;76.50;;;;;;5092311;28;20012;-78
2022/04/24 11:10:02;;;;;;;5.40;3.78;;;16.70;74.70;;;;;;5092654;28;20047;-80
2022/04/24 11:12:35;;;;;;;4.28;3.75;;;16.70;73.50;;;;;;5092463;28;20017;-78
2022/04/24 11:15:11;;;;;;;9.70;3.42;;;16.60;72.40;;;;;;5092498;28;20032;-79
2022/04/24 11:17:38;;;;;;;6.70;3.50;;;16.60;71.60;;;;;;5092614;28;20020;-80
2022/04/24 11:20:10;;;;;;;7.90;3.67;;;16.30;72.10;;;;;;5092665;28;20040;-79
2022/04/24 11:22:45;;;;;;;5.80;3.63;;;16.20;72.60;;;;;;5092499;28;20345;-79
2022/04/24 11:25:16;;;;;;;5.28;3.70;;;16.30;73.10;;;;;;5092109;28;20020;-78
2022/04/24 11:27:44;;;;;;;7.55;3.53;;;16.20;70.90;;;;;;5091230;28;20031;-78
2022/04/24 11:30:31;;;;;;;4.80;3.95;;;16.20;73.60;;;;;;5092311;28;20160;-78
2022/04/24 11:32:59;;;;;;;4.70;4.07;;;16.20;73.00;;;;;;5090875;28;20024;-78
2022/04/24 11:35:29;;;;;;;5.45;3.65;;;16.10;72.50;;;;;;5091770;28;20437;-79
2022/04/24 11:37:55;;;;;;;5.80;4.22;;;16.10;72.90;;;;;;5092136;28;20418;-77
2022/04/24 11:40:21;;;;;;;4.50;3.75;;;16.10;71.30;;;;;;5092540;28;20036;-78
2022/04/24 11:42:47;;;;;;;15.75;3.63;;;16.10;72.10;;;;;;5091794;28;20360;-79
2022/04/24 11:50:51;;;;;;;7.22;3.40;;;16.60;73.20;;;;;;5091832;28;20035;-77
2022/04/24 11:53:18;;;;;;;;;;;16.50;69.80;;;;;;5091151;28;20138;-77
2022/04/24 11:56:03;;;;;;;7.00;3.42;;;16.50;71.50;;;;;;5089876;28;19907;-78
2022/04/24 11:58:36;;;;;;;5.18;3.25;;;16.50;70.20;;;;;;5091909;28;20062;-77
2022/04/24 12:01:04;;;;;;;7.55;3.30;;;16.70;71.40;;;;;;5091465;28;20027;-79
2022/04/24 12:03:30;;;;;;;3.60;2.90;;;16.90;71.20;;;;;;5091789;28;20103;-78
2022/04/24 12:06:01;;;;;;;3.47;2.92;;;17.10;70.50;;;;;;5089582;28;20372;-79
2022/04/24 12:08:44;;;;;;;3.67;2.45;;;17.20;70.80;;;;;;5091662;28;20031;-76
2022/04/24 12:11:24;;;;;;;3.45;2.88;;;17.40;68.90;;;;;;5091748;28;20461;-78
2022/04/24 12:14:03;;;;;;;3.22;2.72;;;17.50;66.90;;;;;;5091496;28;20633;-79
2022/04/24 12:16:30;;;;;;;2.47;2.28;;;17.60;66.00;;;;;;5091052;28;20020;-79
2022/04/24 12:18:57;;;;;;;3.35;2.80;;;17.70;65.50;;;;;;5091444;28;20024;-78
2022/04/24 12:21:23;;;;;;;5.88;2.20;;;17.70;63.70;;;;;;5091480;28;20067;-79
2022/04/24 12:23:50;;;;;;;3.30;2.90;;;17.80;64.10;;;;;;5091499;28;20047;-76
2022/04/24 12:26:15;;;;;;;7.75;3.30;;;17.70;65.70;;;;;;5090880;28;20056;-79
2022/04/24 12:28:41;;;;;;;6.35;3.05;;;17.60;64.40;;;;;;5091260;28;20032;-77
2022/04/24 12:31:18;;;;;;;4.70;2.88;;;17.70;65.20;;;;;;5091193;28;20059;-80
2022/04/24 12:33:47;;;;;;;5.25;2.70;;;17.70;66.40;;;;;;5089865;28;20073;-80
2022/04/24 12:36:14;;;;;;;4.35;2.50;;;17.80;65.70;;;;;;5090416;28;20056;-77
2022/04/24 12:38:40;;;;;;;7.15;2.60;;;17.80;66.30;;;;;;5089712;28;20480;-78
2022/04/24 12:41:11;;;;;;;3.30;2.72;;;17.90;66.60;;;;;;5090891;28;20032;-77
2022/04/24 12:43:36;;;;;;;7.00;2.55;;;18.00;65.50;;;;;;5091129;28;20047;-78
2022/04/24 12:46:02;;;;;;;5.50;2.60;;;18.00;64.70;;;;;;5090269;28;20104;-79
2022/04/24 12:48:29;;;;;;;4.75;3.00;;;18.00;63.50;;;;;;5090953;28;20028;-80
2022/04/24 12:50:55;;;;;;;4.95;2.50;;;18.10;64.60;;;;;;5090372;28;20035;-79
2022/04/24 12:53:22;;;;;;;3.72;2.30;;;18.20;65.20;;;;;;5090946;28;20091;-78